createdAt,value
2019-05-16T00:00:53.052Z,24.33
2019-05-16T00:03:57.960Z,22.57
2019-05-16T00:07:02.514Z,22.20
2019-05-16T00:10:08.378Z,23.37
2019-05-16T00:13:12.967Z,20.53
2019-05-16T00:16:18.663Z,24.30
2019-05-16T00:19:23.435Z,24.53
2019-05-16T00:22:28.733Z,23.77
2019-05-16T00:25:33.550Z,24.23
2019-05-16T00:28:38.125Z,26.33
2019-05-16T00:31:42.531Z,25.20
2019-05-16T00:34:47.815Z,24.37
2019-05-16T00:37:52.224Z,25.70
2019-05-16T00:40:58.892Z,27.50
2019-05-16T00:44:02.559Z,24.77
2019-05-16T00:47:08.654Z,25.47
2019-05-16T00:50:13.161Z,22.30
2019-05-16T00:53:18.220Z,23.20
2019-05-16T00:56:22.959Z,22.13
2019-05-16T00:59:27.945Z,23.87
2019-05-16T01:02:32.232Z,22.83
2019-05-16T01:05:38.773Z,21.43
2019-05-16T01:08:42.466Z,22.93
2019-05-16T01:11:48.670Z,21.53
2019-05-16T01:14:52.835Z,22.33
2019-05-16T01:17:58.847Z,23.47
2019-05-16T01:21:03.350Z,18.73
2019-05-16T01:24:08.083Z,19.30
2019-05-16T01:27:12.431Z,21.30
2019-05-16T01:30:18.693Z,19.63
2019-05-16T01:33:23.262Z,19.67
2019-05-16T01:36:36.845Z,19.83
2019-05-16T01:39:33.735Z,21.27
2019-05-16T01:42:38.622Z,24.93
2019-05-16T01:45:43.217Z,23.00
2019-05-16T01:48:48.509Z,22.77
2019-05-16T01:51:53.038Z,19.33
2019-05-16T01:54:58.695Z,19.10
2019-05-16T01:58:03.168Z,20.50
2019-05-16T02:01:13.083Z,19.57
2019-05-16T02:04:14.728Z,19.80
2019-05-16T02:07:19.096Z,20.77
2019-05-16T02:10:23.608Z,20.50
2019-05-16T02:13:28.615Z,22.23
2019-05-16T02:16:33.095Z,21.43
2019-05-16T02:19:38.481Z,21.27
2019-05-16T02:22:42.959Z,22.77
2019-05-16T02:25:48.932Z,19.93
2019-05-16T02:28:53.647Z,21.10
2019-05-16T02:32:01.572Z,20.57
2019-05-16T02:35:04.356Z,19.43
2019-05-16T02:38:11.183Z,21.63
2019-05-16T02:41:14.679Z,17.87
2019-05-16T02:44:20.846Z,21.10
2019-05-16T02:47:24.899Z,19.70
2019-05-16T02:50:31.692Z,21.17
2019-05-16T02:53:35.237Z,20.10
2019-05-16T02:56:41.809Z,22.37
2019-05-16T02:59:45.674Z,19.63
2019-05-16T03:02:50.539Z,20.63
2019-05-16T03:05:56.419Z,19.20
2019-05-16T03:09:01.734Z,18.83
2019-05-16T03:12:07.014Z,19.77
2019-05-16T03:15:11.613Z,19.83
2019-05-16T03:18:17.885Z,21.43
2019-05-16T03:21:24.220Z,19.80
2019-05-16T03:24:30.998Z,18.87
2019-05-16T03:27:34.537Z,20.03
2019-05-16T03:30:44.499Z,16.90
2019-05-16T03:33:51.958Z,17.17
2019-05-16T03:36:54.354Z,15.13
2019-05-16T03:39:56.835Z,16.13
2019-05-16T03:43:01.722Z,14.97
2019-05-16T03:46:06.312Z,15.83
2019-05-16T03:49:11.423Z,16.17
2019-05-16T03:52:15.949Z,15.63
2019-05-16T03:55:21.326Z,13.13
2019-05-16T03:58:26.192Z,15.87
2019-05-16T04:01:31.324Z,13.93
2019-05-16T04:04:36.009Z,13.90
2019-05-16T04:07:41.472Z,12.17
2019-05-16T04:10:46.282Z,12.07
2019-05-16T04:13:50.892Z,13.67
2019-05-16T04:16:55.312Z,13.73
2019-05-16T04:20:02.087Z,14.63
2019-05-16T04:23:05.748Z,15.07
2019-05-16T04:26:11.319Z,18.87
2019-05-16T04:29:16.001Z,17.67
2019-05-16T04:32:21.012Z,17.90
2019-05-16T04:35:25.529Z,15.80
2019-05-16T04:38:39.091Z,14.53
2019-05-16T04:41:36.643Z,18.00
2019-05-16T04:44:41.710Z,16.53
2019-05-16T04:47:46.376Z,15.77
2019-05-16T04:50:51.883Z,18.53
2019-05-16T04:53:56.627Z,16.70
2019-05-16T04:57:02.050Z,16.60
2019-05-16T05:00:06.745Z,16.97
2019-05-16T05:03:11.882Z,17.67
2019-05-16T05:06:16.444Z,21.57
2019-05-16T05:09:21.103Z,17.97
2019-05-16T05:12:25.482Z,20.93
2019-05-16T05:15:30.638Z,21.30
2019-05-16T05:18:35.295Z,20.60
2019-05-16T05:21:40.981Z,20.37
2019-05-16T05:24:45.996Z,21.40
2019-05-16T05:27:50.396Z,23.30
2019-05-16T05:30:54.927Z,22.33
2019-05-16T05:34:01.046Z,21.43
2019-05-16T05:37:05.581Z,24.60
2019-05-16T05:40:10.740Z,25.13
2019-05-16T05:43:15.312Z,23.10
2019-05-16T05:46:20.772Z,24.17
2019-05-16T05:49:25.112Z,26.83
2019-05-16T05:52:30.297Z,27.30
2019-05-16T05:55:35.128Z,21.10
2019-05-16T05:58:40.720Z,26.77
2019-05-16T06:01:45.187Z,22.83
2019-05-16T06:04:50.253Z,26.23
2019-05-16T06:07:54.571Z,25.80
2019-05-16T06:11:00.759Z,25.67
2019-05-16T06:14:04.956Z,26.83
2019-05-16T06:17:11.477Z,26.13
2019-05-16T06:20:15.449Z,26.37
2019-05-16T06:23:20.665Z,23.53
2019-05-16T06:26:25.400Z,29.77
2019-05-16T06:29:31.028Z,25.43
2019-05-16T06:32:35.488Z,27.00
2019-05-16T06:35:40.271Z,24.77
2019-05-16T06:38:44.685Z,28.10
2019-05-16T06:41:50.971Z,26.30
2019-05-16T06:44:55.021Z,26.87
2019-05-16T06:48:00.712Z,28.73
2019-05-16T06:51:05.368Z,24.30
2019-05-16T06:54:10.156Z,24.53
2019-05-16T06:57:14.789Z,28.97
2019-05-16T07:00:20.939Z,27.60
2019-05-16T07:03:25.859Z,25.40
2019-05-16T07:06:50.880Z,27.03
2019-05-16T07:09:36.276Z,24.77
2019-05-16T07:12:41.400Z,27.47
2019-05-16T07:15:45.916Z,27.43
2019-05-16T07:18:50.758Z,25.60
2019-05-16T07:21:55.290Z,28.60
2019-05-16T07:24:59.929Z,24.43
2019-05-16T07:28:04.521Z,24.20
2019-05-16T07:31:16.774Z,27.33
2019-05-16T07:34:15.786Z,25.20
2019-05-16T07:37:20.285Z,28.90
2019-05-16T07:40:26.962Z,24.47
2019-05-16T07:43:31.138Z,24.43
2019-05-16T07:46:35.590Z,23.67
2019-05-16T07:49:40.692Z,23.07
2019-05-16T07:52:45.259Z,23.40
2019-05-16T07:55:51.156Z,22.77
2019-05-16T07:58:55.682Z,24.13
2019-05-16T08:02:00.647Z,23.13
2019-05-16T08:05:05.112Z,23.87
2019-05-16T08:08:10.557Z,27.23
2019-05-16T08:11:15.348Z,29.63
2019-05-16T08:14:21.257Z,25.33
2019-05-16T08:17:25.823Z,25.97
2019-05-16T08:20:31.389Z,26.77
2019-05-16T08:23:35.808Z,25.47
2019-05-16T08:26:43.129Z,27.87
2019-05-16T08:29:46.408Z,24.77
2019-05-16T08:32:52.767Z,25.93
2019-05-16T08:35:56.829Z,27.67
2019-05-16T08:39:14.101Z,27.07
2019-05-16T08:42:20.889Z,26.83
2019-05-16T08:45:24.867Z,25.77
2019-05-16T08:48:31.814Z,24.47
2019-05-16T08:51:37.108Z,25.30
2019-05-16T08:54:43.762Z,24.37
2019-05-16T08:57:52.499Z,27.23
2019-05-16T09:00:55.773Z,20.83
2019-05-16T09:07:06.360Z,23.40
2019-05-16T09:10:45.683Z,22.33
2019-05-16T09:13:17.622Z,26.37
2019-05-16T09:16:22.108Z,24.23
2019-05-16T09:18:38.218Z,24.33
2019-05-16T09:19:27.542Z,22.50
2019-05-16T09:22:32.110Z,23.70
2019-05-16T09:25:36.997Z,20.67
2019-05-16T09:28:41.461Z,22.10
2019-05-16T09:32:07.079Z,19.70
2019-05-16T09:34:51.971Z,21.40
2019-05-16T09:37:57.551Z,20.60
2019-05-16T09:41:02.294Z,19.93
2019-05-16T09:44:09.747Z,17.47
2019-05-16T09:47:12.843Z,20.67
2019-05-16T09:50:17.574Z,20.27
2019-05-16T09:53:21.948Z,17.23
2019-05-16T09:56:27.030Z,17.63
2019-05-16T09:59:31.446Z,18.57
2019-05-16T10:02:37.786Z,18.23
2019-05-16T10:05:42.148Z,14.93
2019-05-16T10:08:48.229Z,16.27
2019-05-16T10:12:06.956Z,20.87
2019-05-16T10:14:59.827Z,16.77
2019-05-16T10:18:11.795Z,18.67
2019-05-16T10:21:20.316Z,18.07
2019-05-16T10:24:22.496Z,19.03
2019-05-16T10:27:27.126Z,19.20
2019-05-16T10:30:47.053Z,19.13
2019-05-16T10:33:52.923Z,18.77
2019-05-16T10:37:10.974Z,17.33
2019-05-16T10:40:36.659Z,18.67
2019-05-16T10:43:40.111Z,17.17
2019-05-16T10:46:53.581Z,16.20
2019-05-16T10:50:07.756Z,17.13
2019-05-16T10:53:32.410Z,18.03
2019-05-16T10:56:27.086Z,17.17
2019-05-16T11:00:06.590Z,19.33
2019-05-16T11:03:06.513Z,17.67
2019-05-16T11:06:24.698Z,18.63
2019-05-16T11:09:17.541Z,17.23
2019-05-16T11:12:22.246Z,17.90
2019-05-16T11:15:27.797Z,16.13
2019-05-16T11:18:32.862Z,15.97
2019-05-16T11:21:39.262Z,16.47
2019-05-16T11:24:44.144Z,16.23
2019-05-16T11:27:48.634Z,17.83
2019-05-16T11:30:53.201Z,16.87
2019-05-16T11:34:04.180Z,19.80
2019-05-16T11:37:11.280Z,18.10
2019-05-16T11:40:18.773Z,19.47
2019-05-16T11:43:23.192Z,18.17
2019-05-16T11:46:29.238Z,18.63
2019-05-16T11:49:47.441Z,20.57
2019-05-16T11:52:52.455Z,19.67
2019-05-16T11:56:29.516Z,17.67
2019-05-16T11:59:42.873Z,14.73
2019-05-16T12:02:54.811Z,19.40
2019-05-16T12:05:59.320Z,19.03
2019-05-16T12:09:06.737Z,18.53
2019-05-16T12:12:11.390Z,19.80
2019-05-16T12:15:33.503Z,18.73
2019-05-16T12:18:50.619Z,17.37
2019-05-16T12:22:01.771Z,17.77
2019-05-16T12:25:08.595Z,18.00
2019-05-16T12:28:14.003Z,20.03
2019-05-16T12:31:22.754Z,17.17
2019-05-16T12:34:28.838Z,16.57
2019-05-16T12:37:36.929Z,15.87
2019-05-16T12:40:41.728Z,18.40
2019-05-16T12:43:53.434Z,19.40
2019-05-16T12:46:56.933Z,19.30
2019-05-16T12:50:01.904Z,17.97
2019-05-16T12:53:08.118Z,21.00
2019-05-16T12:56:12.849Z,20.70
2019-05-16T12:59:20.443Z,22.63
2019-05-16T13:02:23.765Z,19.93
2019-05-16T13:05:28.264Z,26.53
2019-05-16T13:08:32.878Z,17.63
2019-05-16T13:11:37.855Z,20.43
2019-05-16T13:14:42.735Z,24.30
2019-05-16T13:17:47.582Z,21.40
2019-05-16T13:20:52.840Z,19.50
2019-05-16T13:23:57.675Z,20.13
2019-05-16T13:27:02.372Z,17.47
2019-05-16T13:30:07.936Z,21.00
2019-05-16T13:33:12.546Z,16.00
2019-05-16T13:36:17.645Z,16.60
2019-05-16T13:39:23.860Z,18.17
2019-05-16T13:42:31.060Z,15.33
2019-05-16T13:45:37.723Z,17.70
2019-05-16T13:48:43.565Z,15.87
2019-05-16T13:51:49.347Z,17.30
2019-05-16T13:54:56.384Z,14.53
2019-05-16T13:58:02.135Z,11.53
2019-05-16T14:01:08.027Z,13.67
2019-05-16T14:04:27.988Z,13.10
2019-05-16T14:07:33.252Z,12.87
2019-05-16T14:10:40.393Z,12.80
2019-05-16T14:13:46.926Z,13.70
2019-05-16T14:16:52.982Z,9.73
2019-05-16T14:19:57.892Z,12.13
2019-05-16T14:23:02.719Z,12.67
2019-05-16T14:26:07.376Z,11.57
2019-05-16T14:29:11.898Z,11.20
2019-05-16T14:32:19.535Z,13.90
2019-05-16T14:35:23.773Z,11.93
2019-05-16T14:38:28.390Z,8.77
2019-05-16T14:41:33.234Z,9.00
2019-05-16T14:44:58.411Z,7.37
2019-05-16T14:47:44.002Z,7.93
2019-05-16T14:50:50.020Z,11.57
2019-05-16T14:53:57.309Z,9.37
2019-05-16T14:57:01.525Z,10.40
2019-05-16T15:00:08.101Z,10.80
2019-05-16T15:03:12.575Z,8.67
2019-05-16T15:06:18.329Z,9.03
2019-05-16T15:09:23.008Z,11.50
2019-05-16T15:12:27.410Z,9.17
2019-05-16T15:15:31.949Z,9.13
2019-05-16T15:18:38.385Z,11.27
2019-05-16T15:21:42.639Z,9.63
2019-05-16T15:24:47.081Z,10.57
2019-05-16T15:27:51.540Z,10.07
2019-05-16T15:30:57.492Z,11.23
2019-05-16T15:34:02.116Z,13.50
2019-05-16T15:37:07.814Z,11.90
2019-05-16T15:40:12.793Z,10.73
2019-05-16T15:43:18.453Z,12.30
2019-05-16T15:46:23.634Z,12.80
2019-05-16T15:49:28.555Z,13.20
2019-05-16T15:52:37.870Z,9.53
2019-05-16T15:55:42.615Z,9.80
2019-05-16T15:58:47.068Z,12.97
2019-05-16T16:01:52.117Z,10.60
2019-05-16T16:04:57.641Z,13.33
2019-05-16T16:08:02.118Z,13.37
2019-05-16T16:11:07.381Z,10.47
2019-05-16T16:14:12.273Z,15.30
2019-05-16T16:17:17.809Z,13.53
2019-05-16T16:20:22.381Z,14.30
2019-05-16T16:23:29.436Z,12.17
2019-05-16T16:26:34.335Z,11.00
2019-05-16T16:29:38.938Z,9.73
2019-05-16T16:32:44.691Z,12.90
2019-05-16T16:35:49.531Z,9.83
2019-05-16T16:38:56.641Z,10.10
2019-05-16T16:42:01.546Z,10.27
2019-05-16T16:45:07.311Z,10.63
2019-05-16T16:48:12.459Z,10.53
2019-05-16T16:51:17.722Z,10.60
2019-05-16T16:54:23.010Z,8.83
2019-05-16T16:57:28.329Z,9.23
2019-05-16T17:00:37.481Z,9.20
2019-05-16T17:03:41.136Z,11.37
2019-05-16T17:06:47.072Z,10.87
2019-05-16T17:09:52.200Z,9.93
2019-05-16T17:12:57.648Z,10.23
2019-05-16T17:16:02.317Z,9.60
2019-05-16T17:19:07.658Z,9.80
2019-05-16T17:22:17.579Z,10.83
2019-05-16T17:25:19.201Z,12.20
2019-05-16T17:28:23.794Z,12.23
2019-05-16T17:31:28.256Z,15.20
2019-05-16T17:34:34.473Z,12.90
2019-05-16T17:37:40.101Z,10.47
2019-05-16T17:40:46.420Z,11.20
2019-05-16T17:43:50.696Z,13.93
2019-05-16T17:46:57.565Z,10.43
2019-05-16T17:50:03.005Z,11.40
2019-05-16T17:53:07.724Z,12.47
2019-05-16T17:56:12.408Z,14.33
2019-05-16T17:59:17.194Z,14.40
2019-05-16T18:02:21.611Z,14.30
2019-05-16T18:05:26.142Z,14.43
2019-05-16T18:08:32.243Z,15.97
2019-05-16T18:11:37.514Z,17.67
2019-05-16T18:14:43.628Z,13.77
2019-05-16T18:17:50.614Z,13.97
2019-05-16T18:21:01.020Z,14.83
2019-05-16T18:24:01.945Z,15.13
2019-05-16T18:27:07.143Z,14.80
2019-05-16T18:30:12.228Z,15.47
2019-05-16T18:33:17.719Z,18.27
2019-05-16T18:36:22.432Z,16.83
2019-05-16T18:39:28.183Z,18.57
2019-05-16T18:42:33.807Z,20.03
2019-05-16T18:45:38.270Z,18.67
2019-05-16T18:48:42.888Z,21.30
2019-05-16T18:51:47.663Z,21.93
2019-05-16T18:54:53.632Z,21.23
2019-05-16T18:57:59.385Z,22.83
2019-05-16T19:01:06.708Z,21.57
2019-05-16T19:04:13.352Z,22.03
2019-05-16T19:07:18.943Z,19.33
2019-05-16T19:10:26.825Z,20.97
2019-05-16T19:13:32.309Z,19.43
2019-05-16T19:16:39.694Z,20.67
2019-05-16T19:19:46.453Z,21.27
2019-05-16T19:22:52.161Z,21.30
2019-05-16T19:25:57.567Z,19.97
2019-05-16T19:29:13.812Z,20.50
2019-05-16T19:32:24.732Z,21.83
2019-05-16T19:35:30.393Z,18.87
2019-05-16T19:38:57.450Z,19.43
2019-05-16T19:42:06.492Z,21.30
2019-05-16T19:45:11.836Z,19.73
2019-05-16T19:48:21.898Z,21.20
2019-05-16T19:51:30.096Z,20.07
2019-05-16T19:54:36.474Z,19.13
2019-05-16T19:58:07.162Z,19.53
2019-05-16T20:01:16.794Z,21.67
2019-05-16T20:04:21.633Z,22.87
2019-05-16T20:07:26.576Z,19.97
2019-05-16T20:10:31.605Z,21.80
2019-05-16T20:13:38.740Z,25.90
2019-05-16T20:16:47.131Z,24.43
2019-05-16T20:19:52.509Z,23.13
2019-05-16T20:22:59.502Z,26.67
2019-05-16T20:26:05.046Z,31.07
2019-05-16T20:29:09.993Z,32.43
2019-05-16T20:32:16.712Z,33.70
2019-05-16T20:35:21.959Z,39.97
2019-05-16T20:38:27.010Z,41.93
2019-05-16T20:41:31.583Z,43.73
2019-05-16T20:44:37.295Z,48.57
2019-05-16T20:47:42.319Z,54.50
2019-05-16T20:50:49.097Z,53.10
2019-05-16T20:53:53.028Z,56.33
2019-05-16T20:56:59.473Z,55.87
2019-05-16T21:00:06.784Z,51.83
2019-05-16T21:03:11.189Z,48.33
2019-05-16T21:06:17.042Z,51.83
2019-05-16T21:09:21.939Z,52.17
2019-05-16T21:12:26.629Z,47.13
2019-05-16T21:15:31.208Z,41.20
2019-05-16T21:18:37.659Z,41.03
2019-05-16T21:21:43.151Z,41.60
2019-05-16T21:24:47.716Z,42.50
2019-05-16T21:27:52.293Z,44.33
2019-05-16T21:30:57.840Z,39.33
2019-05-16T21:34:02.875Z,39.83
2019-05-16T21:37:17.156Z,38.13
2019-05-16T21:40:23.457Z,37.97
2019-05-16T21:43:28.961Z,34.10
2019-05-16T21:46:37.113Z,36.43
2019-05-16T21:49:41.961Z,31.47
2019-05-16T21:52:49.275Z,33.10
2019-05-16T21:55:56.263Z,34.37
2019-05-16T21:59:01.504Z,31.87
2019-05-16T22:02:07.089Z,31.47
2019-05-16T22:05:11.612Z,28.40
2019-05-16T22:08:16.803Z,31.67
2019-05-16T22:11:21.400Z,27.63
2019-05-16T22:14:29.057Z,27.77
2019-05-16T22:17:33.553Z,25.77
2019-05-16T22:20:38.875Z,36.67
2019-05-16T22:23:43.929Z,28.13
2019-05-16T22:26:49.058Z,28.70
2019-05-16T22:29:56.596Z,28.60
2019-05-16T22:33:00.846Z,33.33
2019-05-16T22:36:07.048Z,26.23
2019-05-16T22:39:12.072Z,28.07
2019-05-16T22:42:17.697Z,28.43
2019-05-16T22:45:22.613Z,29.13
2019-05-16T22:48:27.212Z,26.60
2019-05-16T22:51:31.727Z,27.53
2019-05-16T22:54:37.072Z,23.87
2019-05-16T22:57:42.024Z,24.10
2019-05-16T23:00:47.124Z,26.23
2019-05-16T23:03:51.474Z,43.10
2019-05-16T23:06:56.477Z,92.30
2019-05-16T23:10:01.040Z,35.53
2019-05-16T23:13:06.737Z,32.73
2019-05-16T23:16:11.393Z,45.47
2019-05-16T23:19:17.116Z,60.77
2019-05-16T23:22:21.655Z,66.10
2019-05-16T23:25:25.955Z,66.73
2019-05-16T23:28:30.393Z,56.03
2019-05-16T23:31:36.917Z,80.90
2019-05-16T23:34:41.274Z,57.70
2019-05-16T23:37:46.377Z,54.97
2019-05-16T23:40:50.836Z,67.73
2019-05-16T23:43:56.707Z,69.17
2019-05-16T23:47:01.180Z,70.17
2019-05-16T23:50:07.616Z,75.87
2019-05-16T23:53:12.049Z,62.07
2019-05-16T23:56:16.824Z,68.73
2019-05-16T23:59:21.713Z,58.03
